sensor_id;sensor_type;location;lat;lon;timestamp;temperature;humidity
23114;DHT22;11726;50.122;8.832;2022-09-09T00:04:27;16.90;99.90
23114;DHT22;11726;50.122;8.832;2022-09-09T00:07:10;16.80;99.90
23114;DHT22;11726;50.122;8.832;2022-09-09T00:10:28;16.80;99.90
23114;DHT22;11726;50.122;8.832;2022-09-09T00:15:23;16.70;99.90
23114;DHT22;11726;50.122;8.832;2022-09-09T00:20:44;16.70;99.90
23114;DHT22;11726;50.122;8.832;2022-09-09T00:23:17;16.70;99.90
23114;DHT22;11726;50.122;8.832;2022-09-09T00:31:33;16.70;99.90
23114;DHT22;11726;50.122;8.832;2022-09-09T00:34:12;16.60;99.90
23114;DHT22;11726;50.122;8.832;2022-09-09T00:36:41;16.60;99.90
23114;DHT22;11726;50.122;8.832;2022-09-09T00:39:21;16.60;99.90
23114;DHT22;11726;50.122;8.832;2022-09-09T00:41:53;16.50;99.90
23114;DHT22;11726;50.122;8.832;2022-09-09T00:44:31;16.60;99.90
23114;DHT22;11726;50.122;8.832;2022-09-09T00:47:36;16.50;99.90
23114;DHT22;11726;50.122;8.832;2022-09-09T00:53:11;16.50;99.90
23114;DHT22;11726;50.122;8.832;2022-09-09T00:56:11;16.40;99.90
23114;DHT22;11726;50.122;8.832;2022-09-09T00:58:38;16.40;99.90
23114;DHT22;11726;50.122;8.832;2022-09-09T01:01:06;16.20;99.90
23114;DHT22;11726;50.122;8.832;2022-09-09T01:03:37;16.20;99.90
23114;DHT22;11726;50.122;8.832;2022-09-09T01:09:05;16.20;99.90
23114;DHT22;11726;50.122;8.832;2022-09-09T01:17:16;16.10;99.90
23114;DHT22;11726;50.122;8.832;2022-09-09T01:22:13;15.90;99.90
23114;DHT22;11726;50.122;8.832;2022-09-09T01:27:46;15.90;99.90
23114;DHT22;11726;50.122;8.832;2022-09-09T01:30:16;15.80;99.90
23114;DHT22;11726;50.122;8.832;2022-09-09T01:32:44;15.80;99.90
23114;DHT22;11726;50.122;8.832;2022-09-09T01:35:37;15.70;99.90
23114;DHT22;11726;50.122;8.832;2022-09-09T01:38:06;15.70;99.90
23114;DHT22;11726;50.122;8.832;2022-09-09T01:40:33;15.60;99.90
23114;DHT22;11726;50.122;8.832;2022-09-09T01:42:59;15.60;99.90
23114;DHT22;11726;50.122;8.832;2022-09-09T01:45:26;15.60;99.90
23114;DHT22;11726;50.122;8.832;2022-09-09T01:47:53;15.60;99.90
23114;DHT22;11726;50.122;8.832;2022-09-09T01:50:20;15.60;99.90
23114;DHT22;11726;50.122;8.832;2022-09-09T01:52:50;15.50;99.90
23114;DHT22;11726;50.122;8.832;2022-09-09T01:55:22;15.50;99.90
23114;DHT22;11726;50.122;8.832;2022-09-09T01:59:02;15.40;99.90
23114;DHT22;11726;50.122;8.832;2022-09-09T02:03:41;15.40;99.90
23114;DHT22;11726;50.122;8.832;2022-09-09T02:06:56;15.40;99.90
23114;DHT22;11726;50.122;8.832;2022-09-09T02:08:59;15.50;99.90
23114;DHT22;11726;50.122;8.832;2022-09-09T02:11:28;15.60;99.90
23114;DHT22;11726;50.122;8.832;2022-09-09T02:14:12;15.50;99.90
23114;DHT22;11726;50.122;8.832;2022-09-09T02:17:03;15.50;99.90
23114;DHT22;11726;50.122;8.832;2022-09-09T02:19:36;15.50;99.90
23114;DHT22;11726;50.122;8.832;2022-09-09T02:22:04;15.50;99.90
23114;DHT22;11726;50.122;8.832;2022-09-09T02:24:33;15.40;99.90
23114;DHT22;11726;50.122;8.832;2022-09-09T02:27:04;15.50;99.90
23114;DHT22;11726;50.122;8.832;2022-09-09T02:29:39;15.40;99.90
23114;DHT22;11726;50.122;8.832;2022-09-09T02:32:11;15.40;99.90
23114;DHT22;11726;50.122;8.832;2022-09-09T02:34:50;15.30;99.90
23114;DHT22;11726;50.122;8.832;2022-09-09T02:37:22;15.20;99.90
23114;DHT22;11726;50.122;8.832;2022-09-09T02:39:51;15.30;99.90
23114;DHT22;11726;50.122;8.832;2022-09-09T02:42:18;15.40;99.90
23114;DHT22;11726;50.122;8.832;2022-09-09T02:44:45;15.40;99.90
23114;DHT22;11726;50.122;8.832;2022-09-09T02:48:17;15.40;99.90
23114;DHT22;11726;50.122;8.832;2022-09-09T02:50:14;15.50;99.90
23114;DHT22;11726;50.122;8.832;2022-09-09T02:55:43;15.60;99.90
23114;DHT22;11726;50.122;8.832;2022-09-09T02:58:16;15.50;99.90
23114;DHT22;11726;50.122;8.832;2022-09-09T03:00:46;15.50;99.90
23114;DHT22;11726;50.122;8.832;2022-09-09T03:03:13;15.50;99.90
23114;DHT22;11726;50.122;8.832;2022-09-09T03:05:39;15.50;99.90
23114;DHT22;11726;50.122;8.832;2022-09-09T03:08:06;15.50;99.90
23114;DHT22;11726;50.122;8.832;2022-09-09T03:10:33;15.50;99.90
23114;DHT22;11726;50.122;8.832;2022-09-09T03:13:01;15.50;99.90
23114;DHT22;11726;50.122;8.832;2022-09-09T03:15:27;15.50;99.90
23114;DHT22;11726;50.122;8.832;2022-09-09T03:17:58;15.50;99.90
23114;DHT22;11726;50.122;8.832;2022-09-09T03:20:25;15.50;99.90
23114;DHT22;11726;50.122;8.832;2022-09-09T03:22:55;15.50;99.90
23114;DHT22;11726;50.122;8.832;2022-09-09T03:25:23;15.50;99.90
23114;DHT22;11726;50.122;8.832;2022-09-09T03:27:54;15.50;99.90
23114;DHT22;11726;50.122;8.832;2022-09-09T03:30:26;15.50;99.90
23114;DHT22;11726;50.122;8.832;2022-09-09T03:32:53;15.50;99.90
23114;DHT22;11726;50.122;8.832;2022-09-09T03:35:21;15.50;99.90
23114;DHT22;11726;50.122;8.832;2022-09-09T03:37:47;15.50;99.90
23114;DHT22;11726;50.122;8.832;2022-09-09T03:40:14;15.50;99.90
23114;DHT22;11726;50.122;8.832;2022-09-09T03:42:41;15.40;99.90
23114;DHT22;11726;50.122;8.832;2022-09-09T03:45:09;15.30;99.90
23114;DHT22;11726;50.122;8.832;2022-09-09T03:47:36;15.40;99.90
23114;DHT22;11726;50.122;8.832;2022-09-09T03:50:04;15.40;99.90
23114;DHT22;11726;50.122;8.832;2022-09-09T03:52:36;15.40;99.90
23114;DHT22;11726;50.122;8.832;2022-09-09T03:55:03;15.30;99.90
23114;DHT22;11726;50.122;8.832;2022-09-09T03:57:30;15.40;99.90
23114;DHT22;11726;50.122;8.832;2022-09-09T03:59:58;15.40;99.90
23114;DHT22;11726;50.122;8.832;2022-09-09T04:02:27;15.40;99.90
23114;DHT22;11726;50.122;8.832;2022-09-09T04:04:54;15.40;99.90
23114;DHT22;11726;50.122;8.832;2022-09-09T04:07:20;15.30;99.90
23114;DHT22;11726;50.122;8.832;2022-09-09T04:09:47;15.40;99.90
23114;DHT22;11726;50.122;8.832;2022-09-09T04:12:14;15.30;99.90
23114;DHT22;11726;50.122;8.832;2022-09-09T04:14:40;15.30;99.90
23114;DHT22;11726;50.122;8.832;2022-09-09T04:17:07;15.30;99.90
23114;DHT22;11726;50.122;8.832;2022-09-09T04:19:34;15.20;99.90
23114;DHT22;11726;50.122;8.832;2022-09-09T04:22:00;15.20;99.90
23114;DHT22;11726;50.122;8.832;2022-09-09T04:24:27;15.20;99.90
23114;DHT22;11726;50.122;8.832;2022-09-09T04:26:55;15.10;99.90
23114;DHT22;11726;50.122;8.832;2022-09-09T04:29:21;15.10;99.90
23114;DHT22;11726;50.122;8.832;2022-09-09T04:31:48;15.10;99.90
23114;DHT22;11726;50.122;8.832;2022-09-09T04:34:15;15.10;99.90
23114;DHT22;11726;50.122;8.832;2022-09-09T04:36:41;15.10;99.90
23114;DHT22;11726;50.122;8.832;2022-09-09T04:39:08;15.10;99.90
23114;DHT22;11726;50.122;8.832;2022-09-09T04:41:35;15.10;99.90
23114;DHT22;11726;50.122;8.832;2022-09-09T04:44:01;15.10;99.90
23114;DHT22;11726;50.122;8.832;2022-09-09T04:46:29;15.00;99.90
23114;DHT22;11726;50.122;8.832;2022-09-09T04:48:55;15.10;99.90
23114;DHT22;11726;50.122;8.832;2022-09-09T04:51:22;15.10;99.90
23114;DHT22;11726;50.122;8.832;2022-09-09T04:53:49;15.10;99.90
23114;DHT22;11726;50.122;8.832;2022-09-09T04:56:18;15.00;99.90
23114;DHT22;11726;50.122;8.832;2022-09-09T04:58:44;15.00;99.90
23114;DHT22;11726;50.122;8.832;2022-09-09T05:01:14;15.10;99.90
23114;DHT22;11726;50.122;8.832;2022-09-09T05:03:41;15.20;99.90
23114;DHT22;11726;50.122;8.832;2022-09-09T05:06:11;15.10;99.90
23114;DHT22;11726;50.122;8.832;2022-09-09T05:08:38;15.10;99.90
23114;DHT22;11726;50.122;8.832;2022-09-09T05:11:26;15.10;99.90
23114;DHT22;11726;50.122;8.832;2022-09-09T05:13:53;15.10;99.90
23114;DHT22;11726;50.122;8.832;2022-09-09T05:16:21;15.10;99.90
23114;DHT22;11726;50.122;8.832;2022-09-09T05:18:47;15.10;99.90
23114;DHT22;11726;50.122;8.832;2022-09-09T05:21:16;15.20;99.90
23114;DHT22;11726;50.122;8.832;2022-09-09T05:23:45;15.30;99.90
23114;DHT22;11726;50.122;8.832;2022-09-09T05:26:14;15.40;99.90
23114;DHT22;11726;50.122;8.832;2022-09-09T05:28:43;15.40;99.90
23114;DHT22;11726;50.122;8.832;2022-09-09T05:31:11;15.40;99.90
23114;DHT22;11726;50.122;8.832;2022-09-09T05:33:41;15.40;99.90
23114;DHT22;11726;50.122;8.832;2022-09-09T05:36:11;15.50;99.90
23114;DHT22;11726;50.122;8.832;2022-09-09T05:38:41;15.40;99.90
23114;DHT22;11726;50.122;8.832;2022-09-09T05:41:09;15.50;99.90
23114;DHT22;11726;50.122;8.832;2022-09-09T05:43:38;15.50;99.90
23114;DHT22;11726;50.122;8.832;2022-09-09T05:46:06;15.60;99.90
23114;DHT22;11726;50.122;8.832;2022-09-09T05:48:35;15.70;99.90
23114;DHT22;11726;50.122;8.832;2022-09-09T05:51:05;15.70;99.90
23114;DHT22;11726;50.122;8.832;2022-09-09T05:53:33;15.80;99.90
23114;DHT22;11726;50.122;8.832;2022-09-09T05:58:37;16.00;99.90
23114;DHT22;11726;50.122;8.832;2022-09-09T06:01:09;16.10;99.90
23114;DHT22;11726;50.122;8.832;2022-09-09T06:03:38;16.20;99.90
23114;DHT22;11726;50.122;8.832;2022-09-09T06:06:07;16.30;99.90
23114;DHT22;11726;50.122;8.832;2022-09-09T06:08:35;16.30;99.90
23114;DHT22;11726;50.122;8.832;2022-09-09T06:11:07;16.30;99.90
23114;DHT22;11726;50.122;8.832;2022-09-09T06:13:34;16.40;99.90
23114;DHT22;11726;50.122;8.832;2022-09-09T06:16:03;16.60;99.90
23114;DHT22;11726;50.122;8.832;2022-09-09T06:18:30;16.70;99.90
23114;DHT22;11726;50.122;8.832;2022-09-09T06:20:59;16.80;99.90
23114;DHT22;11726;50.122;8.832;2022-09-09T06:23:28;16.90;99.90
23114;DHT22;11726;50.122;8.832;2022-09-09T06:26:11;17.00;99.90
23114;DHT22;11726;50.122;8.832;2022-09-09T06:28:39;17.00;99.90
23114;DHT22;11726;50.122;8.832;2022-09-09T06:31:07;17.20;99.90
23114;DHT22;11726;50.122;8.832;2022-09-09T06:33:36;17.20;99.90
23114;DHT22;11726;50.122;8.832;2022-09-09T06:36:28;17.30;99.90
23114;DHT22;11726;50.122;8.832;2022-09-09T06:38:53;17.50;99.90
23114;DHT22;11726;50.122;8.832;2022-09-09T06:41:21;17.70;99.90
23114;DHT22;11726;50.122;8.832;2022-09-09T06:43:49;17.90;99.90
23114;DHT22;11726;50.122;8.832;2022-09-09T06:46:20;18.00;99.90
23114;DHT22;11726;50.122;8.832;2022-09-09T06:48:54;18.10;99.90
23114;DHT22;11726;50.122;8.832;2022-09-09T06:51:30;18.30;99.90
23114;DHT22;11726;50.122;8.832;2022-09-09T06:53:59;18.40;99.90
23114;DHT22;11726;50.122;8.832;2022-09-09T06:58:56;18.80;99.90
23114;DHT22;11726;50.122;8.832;2022-09-09T07:01:26;18.80;99.90
23114;DHT22;11726;50.122;8.832;2022-09-09T07:03:55;18.90;99.90
23114;DHT22;11726;50.122;8.832;2022-09-09T07:06:27;18.90;99.90
23114;DHT22;11726;50.122;8.832;2022-09-09T07:08:55;18.90;99.90
23114;DHT22;11726;50.122;8.832;2022-09-09T07:11:28;18.90;99.90
23114;DHT22;11726;50.122;8.832;2022-09-09T07:13:56;18.90;99.90
23114;DHT22;11726;50.122;8.832;2022-09-09T07:16:23;18.90;99.90
23114;DHT22;11726;50.122;8.832;2022-09-09T07:18:54;19.00;99.90
23114;DHT22;11726;50.122;8.832;2022-09-09T07:21:25;19.10;99.90
23114;DHT22;11726;50.122;8.832;2022-09-09T07:23:53;19.10;99.90
23114;DHT22;11726;50.122;8.832;2022-09-09T07:26:23;19.00;99.90
23114;DHT22;11726;50.122;8.832;2022-09-09T07:28:50;19.00;99.90
23114;DHT22;11726;50.122;8.832;2022-09-09T07:31:17;19.10;99.90
23114;DHT22;11726;50.122;8.832;2022-09-09T07:33:45;19.00;99.90
23114;DHT22;11726;50.122;8.832;2022-09-09T07:36:19;18.90;99.90
23114;DHT22;11726;50.122;8.832;2022-09-09T07:38:53;18.90;99.90
23114;DHT22;11726;50.122;8.832;2022-09-09T07:41:25;18.80;99.90
23114;DHT22;11726;50.122;8.832;2022-09-09T07:43:53;18.70;99.90
23114;DHT22;11726;50.122;8.832;2022-09-09T07:46:25;18.60;99.90
23114;DHT22;11726;50.122;8.832;2022-09-09T07:48:54;18.60;99.90
23114;DHT22;11726;50.122;8.832;2022-09-09T07:51:29;18.60;99.90
23114;DHT22;11726;50.122;8.832;2022-09-09T07:54:02;18.60;99.90
23114;DHT22;11726;50.122;8.832;2022-09-09T07:56:30;18.60;99.90
23114;DHT22;11726;50.122;8.832;2022-09-09T07:58:59;18.60;99.90
23114;DHT22;11726;50.122;8.832;2022-09-09T08:01:30;18.70;99.90
23114;DHT22;11726;50.122;8.832;2022-09-09T08:04:03;18.70;99.90
23114;DHT22;11726;50.122;8.832;2022-09-09T08:06:42;18.70;99.90
23114;DHT22;11726;50.122;8.832;2022-09-09T08:09:09;18.70;99.90
23114;DHT22;11726;50.122;8.832;2022-09-09T08:11:37;18.80;99.90
23114;DHT22;11726;50.122;8.832;2022-09-09T08:14:09;18.90;99.90
23114;DHT22;11726;50.122;8.832;2022-09-09T08:16:41;18.90;99.90
23114;DHT22;11726;50.122;8.832;2022-09-09T08:19:08;18.90;99.90
23114;DHT22;11726;50.122;8.832;2022-09-09T08:21:37;18.90;99.90
23114;DHT22;11726;50.122;8.832;2022-09-09T08:24:07;19.00;99.90
23114;DHT22;11726;50.122;8.832;2022-09-09T08:26:36;19.10;99.90
23114;DHT22;11726;50.122;8.832;2022-09-09T08:29:05;19.20;99.90
23114;DHT22;11726;50.122;8.832;2022-09-09T08:31:37;19.30;99.90
23114;DHT22;11726;50.122;8.832;2022-09-09T08:34:05;19.40;99.90
23114;DHT22;11726;50.122;8.832;2022-09-09T08:36:35;19.40;99.90
23114;DHT22;11726;50.122;8.832;2022-09-09T08:39:04;19.50;99.90
23114;DHT22;11726;50.122;8.832;2022-09-09T08:52:30;19.50;99.90
23114;DHT22;11726;50.122;8.832;2022-09-09T08:55:26;19.70;99.90
23114;DHT22;11726;50.122;8.832;2022-09-09T08:57:57;19.80;99.90
23114;DHT22;11726;50.122;8.832;2022-09-09T09:00:31;19.80;99.90
23114;DHT22;11726;50.122;8.832;2022-09-09T09:03:22;20.00;99.90
23114;DHT22;11726;50.122;8.832;2022-09-09T09:08:52;20.20;99.90
23114;DHT22;11726;50.122;8.832;2022-09-09T09:11:23;20.20;99.90
23114;DHT22;11726;50.122;8.832;2022-09-09T09:14:30;20.20;99.90
23114;DHT22;11726;50.122;8.832;2022-09-09T09:17:00;20.40;99.90
23114;DHT22;11726;50.122;8.832;2022-09-09T09:19:28;20.40;99.90
23114;DHT22;11726;50.122;8.832;2022-09-09T09:24:45;20.40;99.90
23114;DHT22;11726;50.122;8.832;2022-09-09T09:27:25;20.30;99.90
23114;DHT22;11726;50.122;8.832;2022-09-09T09:29:56;20.50;99.90
23114;DHT22;11726;50.122;8.832;2022-09-09T09:32:55;20.70;99.90
23114;DHT22;11726;50.122;8.832;2022-09-09T09:35:22;20.60;99.90
23114;DHT22;11726;50.122;8.832;2022-09-09T09:37:50;20.70;99.90
23114;DHT22;11726;50.122;8.832;2022-09-09T09:40:37;20.90;99.90
23114;DHT22;11726;50.122;8.832;2022-09-09T09:43:03;21.00;99.90
23114;DHT22;11726;50.122;8.832;2022-09-09T09:45:41;21.00;99.90
23114;DHT22;11726;50.122;8.832;2022-09-09T09:48:27;21.00;99.90
23114;DHT22;11726;50.122;8.832;2022-09-09T09:53:33;21.00;99.90
23114;DHT22;11726;50.122;8.832;2022-09-09T09:56:04;20.80;99.90
23114;DHT22;11726;50.122;8.832;2022-09-09T09:58:48;20.70;99.90
23114;DHT22;11726;50.122;8.832;2022-09-09T10:03:57;20.20;99.90
23114;DHT22;11726;50.122;8.832;2022-09-09T10:06:37;19.90;99.90
23114;DHT22;11726;50.122;8.832;2022-09-09T10:09:20;19.50;99.90
23114;DHT22;11726;50.122;8.832;2022-09-09T10:12:20;19.30;99.90
23114;DHT22;11726;50.122;8.832;2022-09-09T10:15:15;19.20;99.90
23114;DHT22;11726;50.122;8.832;2022-09-09T10:23:02;19.50;99.90
23114;DHT22;11726;50.122;8.832;2022-09-09T10:31:24;19.50;99.90
23114;DHT22;11726;50.122;8.832;2022-09-09T10:34:00;19.90;99.90
23114;DHT22;11726;50.122;8.832;2022-09-09T10:36:34;20.40;99.90
23114;DHT22;11726;50.122;8.832;2022-09-09T10:39:10;20.80;99.90
23114;DHT22;11726;50.122;8.832;2022-09-09T10:44:55;20.70;99.90
23114;DHT22;11726;50.122;8.832;2022-09-09T10:50:50;21.20;99.90
23114;DHT22;11726;50.122;8.832;2022-09-09T10:56:20;21.50;99.90
23114;DHT22;11726;50.122;8.832;2022-09-09T10:59:02;21.50;99.90
23114;DHT22;11726;50.122;8.832;2022-09-09T11:01:37;21.50;99.90
23114;DHT22;11726;50.122;8.832;2022-09-09T11:04:22;21.50;99.90
23114;DHT22;11726;50.122;8.832;2022-09-09T11:06:53;21.30;99.90
23114;DHT22;11726;50.122;8.832;2022-09-09T11:09:25;21.20;99.90
23114;DHT22;11726;50.122;8.832;2022-09-09T11:11:55;21.00;99.90
23114;DHT22;11726;50.122;8.832;2022-09-09T11:14:44;20.80;99.90
23114;DHT22;11726;50.122;8.832;2022-09-09T11:17:24;20.50;99.90
23114;DHT22;11726;50.122;8.832;2022-09-09T11:19:53;20.00;99.90
23114;DHT22;11726;50.122;8.832;2022-09-09T11:22:37;19.90;99.90
23114;DHT22;11726;50.122;8.832;2022-09-09T11:25:23;19.80;99.90
23114;DHT22;11726;50.122;8.832;2022-09-09T11:33:47;20.20;99.90
23114;DHT22;11726;50.122;8.832;2022-09-09T11:36:43;20.10;99.90
23114;DHT22;11726;50.122;8.832;2022-09-09T11:41:44;20.00;99.90
23114;DHT22;11726;50.122;8.832;2022-09-09T11:44:12;19.80;99.90
23114;DHT22;11726;50.122;8.832;2022-09-09T11:46:45;19.70;99.90
23114;DHT22;11726;50.122;8.832;2022-09-09T11:51:55;19.60;99.90
23114;DHT22;11726;50.122;8.832;2022-09-09T11:56:56;19.80;99.90
23114;DHT22;11726;50.122;8.832;2022-09-09T11:59:33;20.10;99.90
23114;DHT22;11726;50.122;8.832;2022-09-09T12:02:14;20.80;99.90
23114;DHT22;11726;50.122;8.832;2022-09-09T12:04:50;21.30;99.90
23114;DHT22;11726;50.122;8.832;2022-09-09T12:07:26;21.30;99.90
23114;DHT22;11726;50.122;8.832;2022-09-09T12:15:54;21.20;99.90
23114;DHT22;11726;50.122;8.832;2022-09-09T12:18:31;21.00;99.90
23114;DHT22;11726;50.122;8.832;2022-09-09T12:21:13;20.90;99.90
23114;DHT22;11726;50.122;8.832;2022-09-09T12:32:26;20.80;99.90
23114;DHT22;11726;50.122;8.832;2022-09-09T12:34:56;20.60;99.90
23114;DHT22;11726;50.122;8.832;2022-09-09T12:37:34;20.40;99.90
23114;DHT22;11726;50.122;8.832;2022-09-09T12:40:23;20.40;99.90
23114;DHT22;11726;50.122;8.832;2022-09-09T12:42:50;20.40;99.90
23114;DHT22;11726;50.122;8.832;2022-09-09T12:45:18;20.30;99.90
23114;DHT22;11726;50.122;8.832;2022-09-09T12:47:49;20.00;99.90
23114;DHT22;11726;50.122;8.832;2022-09-09T12:50:21;19.90;99.90
23114;DHT22;11726;50.122;8.832;2022-09-09T12:52:50;19.60;99.90
23114;DHT22;11726;50.122;8.832;2022-09-09T12:55:21;19.40;99.90
23114;DHT22;11726;50.122;8.832;2022-09-09T12:57:52;19.20;99.90
23114;DHT22;11726;50.122;8.832;2022-09-09T13:00:24;18.90;99.90
23114;DHT22;11726;50.122;8.832;2022-09-09T13:02:56;18.80;99.90
23114;DHT22;11726;50.122;8.832;2022-09-09T13:05:27;18.70;99.90
23114;DHT22;11726;50.122;8.832;2022-09-09T13:08:04;18.60;99.90
23114;DHT22;11726;50.122;8.832;2022-09-09T13:10:35;18.40;99.90
23114;DHT22;11726;50.122;8.832;2022-09-09T13:13:26;18.40;99.90
23114;DHT22;11726;50.122;8.832;2022-09-09T13:15:56;18.30;99.90
23114;DHT22;11726;50.122;8.832;2022-09-09T13:18:26;18.20;99.90
23114;DHT22;11726;50.122;8.832;2022-09-09T13:20:54;18.30;99.90
23114;DHT22;11726;50.122;8.832;2022-09-09T13:23:28;18.30;99.90
23114;DHT22;11726;50.122;8.832;2022-09-09T13:25:58;18.40;99.90
23114;DHT22;11726;50.122;8.832;2022-09-09T13:28:28;18.60;99.90
23114;DHT22;11726;50.122;8.832;2022-09-09T13:33:34;18.70;99.90
23114;DHT22;11726;50.122;8.832;2022-09-09T13:36:08;18.70;99.90
23114;DHT22;11726;50.122;8.832;2022-09-09T13:38:38;18.70;99.90
23114;DHT22;11726;50.122;8.832;2022-09-09T13:41:08;18.80;99.90
23114;DHT22;11726;50.122;8.832;2022-09-09T13:43:38;18.90;99.90
23114;DHT22;11726;50.122;8.832;2022-09-09T13:49:19;19.30;99.90
23114;DHT22;11726;50.122;8.832;2022-09-09T13:52:10;19.30;99.90
23114;DHT22;11726;50.122;8.832;2022-09-09T13:54:38;19.50;99.90
23114;DHT22;11726;50.122;8.832;2022-09-09T13:57:05;20.00;99.90
23114;DHT22;11726;50.122;8.832;2022-09-09T13:59:32;20.60;99.90
23114;DHT22;11726;50.122;8.832;2022-09-09T14:02:18;21.20;99.90
23114;DHT22;11726;50.122;8.832;2022-09-09T14:04:45;22.00;99.90
23114;DHT22;11726;50.122;8.832;2022-09-09T14:07:13;22.20;99.90
23114;DHT22;11726;50.122;8.832;2022-09-09T14:09:41;22.80;99.90
23114;DHT22;11726;50.122;8.832;2022-09-09T14:12:11;23.30;99.90
23114;DHT22;11726;50.122;8.832;2022-09-09T14:14:38;23.30;99.90
23114;DHT22;11726;50.122;8.832;2022-09-09T14:17:05;23.00;99.90
23114;DHT22;11726;50.122;8.832;2022-09-09T14:19:33;23.10;99.90
23114;DHT22;11726;50.122;8.832;2022-09-09T14:22:00;22.80;99.90
23114;DHT22;11726;50.122;8.832;2022-09-09T14:24:27;22.50;99.90
23114;DHT22;11726;50.122;8.832;2022-09-09T14:26:54;22.20;99.90
23114;DHT22;11726;50.122;8.832;2022-09-09T14:29:21;22.00;99.90
23114;DHT22;11726;50.122;8.832;2022-09-09T14:31:48;21.70;99.90
23114;DHT22;11726;50.122;8.832;2022-09-09T14:34:14;21.50;99.90
23114;DHT22;11726;50.122;8.832;2022-09-09T14:36:41;21.30;99.90
23114;DHT22;11726;50.122;8.832;2022-09-09T14:39:08;21.10;99.90
23114;DHT22;11726;50.122;8.832;2022-09-09T14:41:34;20.90;99.90
23114;DHT22;11726;50.122;8.832;2022-09-09T14:44:01;20.90;99.90
23114;DHT22;11726;50.122;8.832;2022-09-09T14:46:28;21.00;99.90
23114;DHT22;11726;50.122;8.832;2022-09-09T14:48:55;20.90;99.90
23114;DHT22;11726;50.122;8.832;2022-09-09T14:51:23;21.10;99.90
23114;DHT22;11726;50.122;8.832;2022-09-09T14:53:52;20.90;99.90
23114;DHT22;11726;50.122;8.832;2022-09-09T14:56:22;20.80;99.90
23114;DHT22;11726;50.122;8.832;2022-09-09T14:58:49;20.70;99.90
23114;DHT22;11726;50.122;8.832;2022-09-09T15:01:18;20.70;99.90
23114;DHT22;11726;50.122;8.832;2022-09-09T15:03:53;20.80;99.90
23114;DHT22;11726;50.122;8.832;2022-09-09T15:06:23;20.90;99.90
23114;DHT22;11726;50.122;8.832;2022-09-09T15:08:51;21.10;99.90
23114;DHT22;11726;50.122;8.832;2022-09-09T15:11:19;21.00;99.90
23114;DHT22;11726;50.122;8.832;2022-09-09T15:13:46;21.00;99.90
23114;DHT22;11726;50.122;8.832;2022-09-09T15:16:18;20.90;99.90
23114;DHT22;11726;50.122;8.832;2022-09-09T15:18:46;21.00;99.90
23114;DHT22;11726;50.122;8.832;2022-09-09T15:21:18;21.00;99.90
23114;DHT22;11726;50.122;8.832;2022-09-09T15:23:48;21.10;99.90
23114;DHT22;11726;50.122;8.832;2022-09-09T15:26:15;21.00;99.90
23114;DHT22;11726;50.122;8.832;2022-09-09T15:28:43;21.10;99.90
23114;DHT22;11726;50.122;8.832;2022-09-09T15:31:24;20.90;99.90
23114;DHT22;11726;50.122;8.832;2022-09-09T15:33:53;20.80;99.90
23114;DHT22;11726;50.122;8.832;2022-09-09T15:36:21;20.60;99.90
23114;DHT22;11726;50.122;8.832;2022-09-09T15:38:48;20.50;99.90
23114;DHT22;11726;50.122;8.832;2022-09-09T15:41:17;20.80;99.90
23114;DHT22;11726;50.122;8.832;2022-09-09T15:43:45;20.90;99.90
23114;DHT22;11726;50.122;8.832;2022-09-09T15:46:33;21.00;99.90
23114;DHT22;11726;50.122;8.832;2022-09-09T15:49:10;21.30;99.90
23114;DHT22;11726;50.122;8.832;2022-09-09T15:51:42;21.60;99.90
23114;DHT22;11726;50.122;8.832;2022-09-09T15:54:13;21.90;99.90
23114;DHT22;11726;50.122;8.832;2022-09-09T15:56:40;22.10;99.90
23114;DHT22;11726;50.122;8.832;2022-09-09T15:59:07;22.10;99.90
23114;DHT22;11726;50.122;8.832;2022-09-09T16:01:34;21.70;99.90
23114;DHT22;11726;50.122;8.832;2022-09-09T16:04:02;21.50;99.90
23114;DHT22;11726;50.122;8.832;2022-09-09T16:06:30;21.30;99.90
23114;DHT22;11726;50.122;8.832;2022-09-09T16:08:58;21.10;99.90
23114;DHT22;11726;50.122;8.832;2022-09-09T16:11:30;21.00;99.90
23114;DHT22;11726;50.122;8.832;2022-09-09T16:13:58;20.90;99.90
23114;DHT22;11726;50.122;8.832;2022-09-09T16:16:27;20.90;99.90
23114;DHT22;11726;50.122;8.832;2022-09-09T16:18:57;20.80;99.90
23114;DHT22;11726;50.122;8.832;2022-09-09T16:21:31;20.90;99.90
23114;DHT22;11726;50.122;8.832;2022-09-09T16:23:59;20.70;99.90
23114;DHT22;11726;50.122;8.832;2022-09-09T16:26:27;20.60;99.90
23114;DHT22;11726;50.122;8.832;2022-09-09T16:28:54;20.50;99.90
23114;DHT22;11726;50.122;8.832;2022-09-09T16:31:22;20.50;99.90
23114;DHT22;11726;50.122;8.832;2022-09-09T16:33:50;20.30;99.90
23114;DHT22;11726;50.122;8.832;2022-09-09T16:36:22;20.20;99.90
23114;DHT22;11726;50.122;8.832;2022-09-09T16:38:58;20.20;99.90
23114;DHT22;11726;50.122;8.832;2022-09-09T16:41:25;20.20;99.90
23114;DHT22;11726;50.122;8.832;2022-09-09T16:43:53;20.10;99.90
23114;DHT22;11726;50.122;8.832;2022-09-09T16:46:21;20.00;99.90
23114;DHT22;11726;50.122;8.832;2022-09-09T16:48:48;19.90;99.90
23114;DHT22;11726;50.122;8.832;2022-09-09T16:51:45;20.00;99.90
23114;DHT22;11726;50.122;8.832;2022-09-09T16:54:10;20.00;99.90
23114;DHT22;11726;50.122;8.832;2022-09-09T16:56:39;19.90;99.90
23114;DHT22;11726;50.122;8.832;2022-09-09T16:59:14;19.70;99.90
23114;DHT22;11726;50.122;8.832;2022-09-09T17:01:42;19.70;99.90
23114;DHT22;11726;50.122;8.832;2022-09-09T17:04:21;19.60;99.90
23114;DHT22;11726;50.122;8.832;2022-09-09T17:06:51;19.50;99.90
23114;DHT22;11726;50.122;8.832;2022-09-09T17:09:20;19.50;99.90
23114;DHT22;11726;50.122;8.832;2022-09-09T17:11:47;19.40;99.90
23114;DHT22;11726;50.122;8.832;2022-09-09T17:14:16;19.40;99.90
23114;DHT22;11726;50.122;8.832;2022-09-09T17:16:44;19.40;99.90
23114;DHT22;11726;50.122;8.832;2022-09-09T17:19:11;19.30;99.90
23114;DHT22;11726;50.122;8.832;2022-09-09T17:21:38;19.30;99.90
23114;DHT22;11726;50.122;8.832;2022-09-09T17:24:26;19.20;99.90
23114;DHT22;11726;50.122;8.832;2022-09-09T17:26:53;19.20;99.90
23114;DHT22;11726;50.122;8.832;2022-09-09T17:29:21;19.10;99.90
23114;DHT22;11726;50.122;8.832;2022-09-09T17:31:48;19.10;99.90
23114;DHT22;11726;50.122;8.832;2022-09-09T17:34:14;19.10;99.90
23114;DHT22;11726;50.122;8.832;2022-09-09T17:36:41;19.00;99.90
23114;DHT22;11726;50.122;8.832;2022-09-09T17:39:08;18.90;99.90
23114;DHT22;11726;50.122;8.832;2022-09-09T17:41:36;18.90;99.90
23114;DHT22;11726;50.122;8.832;2022-09-09T17:44:04;18.90;99.90
23114;DHT22;11726;50.122;8.832;2022-09-09T17:46:34;18.70;99.90
23114;DHT22;11726;50.122;8.832;2022-09-09T17:49:04;18.70;99.90
23114;DHT22;11726;50.122;8.832;2022-09-09T17:51:32;18.70;99.90
23114;DHT22;11726;50.122;8.832;2022-09-09T17:54:01;18.70;99.90
23114;DHT22;11726;50.122;8.832;2022-09-09T17:56:30;18.60;99.90